Terminal Aerodrome Forecast
Issued by NWS Flagstaff, AZ

Home | Current Version | Previous Version | Text Only | Print | Product List | Glossary On
Versions: 1 2 3 4 5 6 7 8 9 10 11 12 13 14 15
000
FTUS45 KFGZ 040149 AAA
TAFFLG
TAF AMD
KFLG 040149Z 0402/0424 24006KT P6SM FEW090
     FM040300 VRB05KT P6SM SKC
     FM041900 23010G15KT P6SM SCT100=

USA.gov is the U.S. government's official web portal to all federal, state and local government web resources and services.